sensor_id;sensor_type;location;lat;lon;timestamp;temperature;humidity
9666;DHT22;4871;52.004;5.924;2023-05-29T00:00:00;15.0;54.2
9666;DHT22;4871;52.004;5.924;2023-05-29T00:01:00;15.0;53.7
9666;DHT22;4871;52.004;5.924;2023-05-29T00:02:00;14.9;54.2
9666;DHT22;4871;52.004;5.924;2023-05-29T00:03:01;14.9;54.2
9666;DHT22;4871;52.004;5.924;2023-05-29T00:04:00;14.9;53.7
9666;DHT22;4871;52.004;5.924;2023-05-29T00:05:03;14.8;54.1
9666;DHT22;4871;52.004;5.924;2023-05-29T00:06:02;14.9;54.3
9666;DHT22;4871;52.004;5.924;2023-05-29T00:07:00;14.9;54.1
9666;DHT22;4871;52.004;5.924;2023-05-29T00:08:00;14.8;54.5
9666;DHT22;4871;52.004;5.924;2023-05-29T00:09:00;14.8;54.5
9666;DHT22;4871;52.004;5.924;2023-05-29T00:10:00;14.7;54.3
9666;DHT22;4871;52.004;5.924;2023-05-29T00:11:00;14.7;54.1
9666;DHT22;4871;52.004;5.924;2023-05-29T00:12:01;14.7;54.8
9666;DHT22;4871;52.004;5.924;2023-05-29T00:13:01;14.7;54.2
9666;DHT22;4871;52.004;5.924;2023-05-29T00:14:00;14.7;54.2
9666;DHT22;4871;52.004;5.924;2023-05-29T00:15:00;14.7;54.4
9666;DHT22;4871;52.004;5.924;2023-05-29T00:16:00;14.7;54.5
9666;DHT22;4871;52.004;5.924;2023-05-29T00:17:00;14.7;54.3
9666;DHT22;4871;52.004;5.924;2023-05-29T00:18:01;14.6;54.5
9666;DHT22;4871;52.004;5.924;2023-05-29T00:19:00;14.5;54.9
9666;DHT22;4871;52.004;5.924;2023-05-29T00:20:02;14.5;54.5
9666;DHT22;4871;52.004;5.924;2023-05-29T00:21:00;14.5;54.9
9666;DHT22;4871;52.004;5.924;2023-05-29T00:22:00;14.5;54.8
9666;DHT22;4871;52.004;5.924;2023-05-29T00:23:02;14.4;54.9
9666;DHT22;4871;52.004;5.924;2023-05-29T00:24:00;14.4;54.6
9666;DHT22;4871;52.004;5.924;2023-05-29T00:25:00;14.5;55.0
9666;DHT22;4871;52.004;5.924;2023-05-29T00:26:00;14.5;54.7
9666;DHT22;4871;52.004;5.924;2023-05-29T00:27:01;14.5;55.0
9666;DHT22;4871;52.004;5.924;2023-05-29T00:28:00;14.5;54.8
9666;DHT22;4871;52.004;5.924;2023-05-29T00:29:00;14.4;54.6
9666;DHT22;4871;52.004;5.924;2023-05-29T00:30:00;14.4;54.6
9666;DHT22;4871;52.004;5.924;2023-05-29T00:31:00;14.3;54.9
9666;DHT22;4871;52.004;5.924;2023-05-29T00:32:00;14.4;54.6
9666;DHT22;4871;52.004;5.924;2023-05-29T00:33:00;14.3;54.7
9666;DHT22;4871;52.004;5.924;2023-05-29T00:34:00;14.3;54.8
9666;DHT22;4871;52.004;5.924;2023-05-29T00:35:00;14.3;54.7
9666;DHT22;4871;52.004;5.924;2023-05-29T00:36:00;14.3;54.7
9666;DHT22;4871;52.004;5.924;2023-05-29T00:37:01;14.3;54.9
9666;DHT22;4871;52.004;5.924;2023-05-29T00:38:00;14.3;54.9
9666;DHT22;4871;52.004;5.924;2023-05-29T00:39:00;14.3;54.8
9666;DHT22;4871;52.004;5.924;2023-05-29T00:40:00;14.3;54.8
9666;DHT22;4871;52.004;5.924;2023-05-29T00:41:00;14.3;54.6
9666;DHT22;4871;52.004;5.924;2023-05-29T00:42:00;14.3;54.8
9666;DHT22;4871;52.004;5.924;2023-05-29T00:43:00;14.3;54.5
9666;DHT22;4871;52.004;5.924;2023-05-29T00:44:00;14.3;54.5
9666;DHT22;4871;52.004;5.924;2023-05-29T00:45:00;14.2;54.3
9666;DHT22;4871;52.004;5.924;2023-05-29T00:46:00;14.2;54.4
9666;DHT22;4871;52.004;5.924;2023-05-29T00:47:00;14.2;54.5
9666;DHT22;4871;52.004;5.924;2023-05-29T00:48:00;14.2;54.6
9666;DHT22;4871;52.004;5.924;2023-05-29T00:49:00;14.1;54.9
9666;DHT22;4871;52.004;5.924;2023-05-29T00:50:01;14.1;54.7
9666;DHT22;4871;52.004;5.924;2023-05-29T00:51:00;14.1;54.6
9666;DHT22;4871;52.004;5.924;2023-05-29T00:52:00;14.1;54.7
9666;DHT22;4871;52.004;5.924;2023-05-29T00:53:02;14.0;54.7
9666;DHT22;4871;52.004;5.924;2023-05-29T00:54:00;14.0;54.9
9666;DHT22;4871;52.004;5.924;2023-05-29T00:55:02;14.0;54.7
9666;DHT22;4871;52.004;5.924;2023-05-29T00:56:01;14.0;54.6
9666;DHT22;4871;52.004;5.924;2023-05-29T00:57:01;14.0;54.7
9666;DHT22;4871;52.004;5.924;2023-05-29T00:58:00;14.0;54.5
9666;DHT22;4871;52.004;5.924;2023-05-29T00:59:00;14.0;54.7
9666;DHT22;4871;52.004;5.924;2023-05-29T01:00:01;14.0;54.4
9666;DHT22;4871;52.004;5.924;2023-05-29T01:01:00;13.9;54.6
9666;DHT22;4871;52.004;5.924;2023-05-29T01:02:01;14.0;54.8
9666;DHT22;4871;52.004;5.924;2023-05-29T01:03:03;13.9;54.4
9666;DHT22;4871;52.004;5.924;2023-05-29T01:04:03;14.0;54.2
9666;DHT22;4871;52.004;5.924;2023-05-29T01:05:00;13.9;55.0
9666;DHT22;4871;52.004;5.924;2023-05-29T01:06:00;13.9;54.5
9666;DHT22;4871;52.004;5.924;2023-05-29T01:07:00;13.9;54.8
9666;DHT22;4871;52.004;5.924;2023-05-29T01:08:00;13.9;55.0
9666;DHT22;4871;52.004;5.924;2023-05-29T01:09:00;13.8;54.9
9666;DHT22;4871;52.004;5.924;2023-05-29T01:10:00;13.8;54.5
9666;DHT22;4871;52.004;5.924;2023-05-29T01:11:05;13.8;54.9
9666;DHT22;4871;52.004;5.924;2023-05-29T01:12:12;13.8;54.9
9666;DHT22;4871;52.004;5.924;2023-05-29T01:13:04;13.7;54.5
9666;DHT22;4871;52.004;5.924;2023-05-29T01:14:05;13.6;55.1
9666;DHT22;4871;52.004;5.924;2023-05-29T01:15:29;13.7;55.0
9666;DHT22;4871;52.004;5.924;2023-05-29T01:16:03;13.7;54.7
9666;DHT22;4871;52.004;5.924;2023-05-29T01:17:07;13.7;54.6
9666;DHT22;4871;52.004;5.924;2023-05-29T01:18:08;13.7;55.0
9666;DHT22;4871;52.004;5.924;2023-05-29T01:19:05;13.7;55.0
9666;DHT22;4871;52.004;5.924;2023-05-29T01:20:14;13.7;54.7
9666;DHT22;4871;52.004;5.924;2023-05-29T01:21:04;13.7;55.0
9666;DHT22;4871;52.004;5.924;2023-05-29T01:22:09;13.7;54.7
9666;DHT22;4871;52.004;5.924;2023-05-29T01:23:07;13.7;54.7
9666;DHT22;4871;52.004;5.924;2023-05-29T01:24:03;13.6;55.0
9666;DHT22;4871;52.004;5.924;2023-05-29T01:25:05;13.6;55.2
9666;DHT22;4871;52.004;5.924;2023-05-29T01:26:11;13.6;54.8
9666;DHT22;4871;52.004;5.924;2023-05-29T01:27:00;13.6;55.2
9666;DHT22;4871;52.004;5.924;2023-05-29T01:28:01;13.6;55.1
9666;DHT22;4871;52.004;5.924;2023-05-29T01:29:02;13.6;55.0
9666;DHT22;4871;52.004;5.924;2023-05-29T01:30:01;13.6;55.0
9666;DHT22;4871;52.004;5.924;2023-05-29T01:31:00;13.6;54.8
9666;DHT22;4871;52.004;5.924;2023-05-29T01:32:01;13.6;54.6
9666;DHT22;4871;52.004;5.924;2023-05-29T01:33:00;13.6;54.6
9666;DHT22;4871;52.004;5.924;2023-05-29T01:34:00;13.6;54.7
9666;DHT22;4871;52.004;5.924;2023-05-29T01:35:00;13.5;54.5
9666;DHT22;4871;52.004;5.924;2023-05-29T01:36:00;13.5;54.8
9666;DHT22;4871;52.004;5.924;2023-05-29T01:37:00;13.5;54.5
9666;DHT22;4871;52.004;5.924;2023-05-29T01:38:00;13.5;54.9
9666;DHT22;4871;52.004;5.924;2023-05-29T01:39:00;13.5;54.9
9666;DHT22;4871;52.004;5.924;2023-05-29T01:40:00;13.5;54.8
9666;DHT22;4871;52.004;5.924;2023-05-29T01:41:01;13.4;55.1
9666;DHT22;4871;52.004;5.924;2023-05-29T01:42:00;13.4;54.9
9666;DHT22;4871;52.004;5.924;2023-05-29T01:43:01;13.4;55.1
9666;DHT22;4871;52.004;5.924;2023-05-29T01:44:04;13.4;55.0
9666;DHT22;4871;52.004;5.924;2023-05-29T01:45:01;13.4;54.5
9666;DHT22;4871;52.004;5.924;2023-05-29T01:46:00;13.4;54.7
9666;DHT22;4871;52.004;5.924;2023-05-29T01:47:00;13.4;55.1
9666;DHT22;4871;52.004;5.924;2023-05-29T01:48:00;13.4;54.8
9666;DHT22;4871;52.004;5.924;2023-05-29T01:49:00;13.4;55.1
9666;DHT22;4871;52.004;5.924;2023-05-29T01:50:00;13.3;54.9
9666;DHT22;4871;52.004;5.924;2023-05-29T01:51:00;13.3;55.0
9666;DHT22;4871;52.004;5.924;2023-05-29T01:52:00;13.3;55.1
9666;DHT22;4871;52.004;5.924;2023-05-29T01:53:00;13.3;55.1
9666;DHT22;4871;52.004;5.924;2023-05-29T01:54:01;13.3;55.0
9666;DHT22;4871;52.004;5.924;2023-05-29T01:55:00;13.3;55.1
9666;DHT22;4871;52.004;5.924;2023-05-29T01:56:00;13.3;54.9
9666;DHT22;4871;52.004;5.924;2023-05-29T01:57:01;13.2;54.8
9666;DHT22;4871;52.004;5.924;2023-05-29T01:58:00;13.2;55.2
9666;DHT22;4871;52.004;5.924;2023-05-29T01:59:02;13.2;55.0
9666;DHT22;4871;52.004;5.924;2023-05-29T02:00:01;13.2;55.2
9666;DHT22;4871;52.004;5.924;2023-05-29T02:01:01;13.2;55.3
9666;DHT22;4871;52.004;5.924;2023-05-29T02:02:05;13.2;55.1
9666;DHT22;4871;52.004;5.924;2023-05-29T02:03:00;13.2;55.1
9666;DHT22;4871;52.004;5.924;2023-05-29T02:04:00;13.2;55.2
9666;DHT22;4871;52.004;5.924;2023-05-29T02:05:00;13.2;55.0
9666;DHT22;4871;52.004;5.924;2023-05-29T02:06:00;13.2;55.1
9666;DHT22;4871;52.004;5.924;2023-05-29T02:07:00;13.2;55.1
9666;DHT22;4871;52.004;5.924;2023-05-29T02:08:00;13.2;54.9
9666;DHT22;4871;52.004;5.924;2023-05-29T02:09:01;13.2;55.0
9666;DHT22;4871;52.004;5.924;2023-05-29T02:10:00;13.1;55.0
9666;DHT22;4871;52.004;5.924;2023-05-29T02:11:00;13.1;55.1
9666;DHT22;4871;52.004;5.924;2023-05-29T02:12:00;13.0;55.6
9666;DHT22;4871;52.004;5.924;2023-05-29T02:13:00;13.0;55.5
9666;DHT22;4871;52.004;5.924;2023-05-29T02:14:03;13.0;55.6
9666;DHT22;4871;52.004;5.924;2023-05-29T02:15:00;13.0;55.4
9666;DHT22;4871;52.004;5.924;2023-05-29T02:16:00;13.0;55.5
9666;DHT22;4871;52.004;5.924;2023-05-29T02:17:01;13.0;55.6
9666;DHT22;4871;52.004;5.924;2023-05-29T02:18:01;13.1;55.2
9666;DHT22;4871;52.004;5.924;2023-05-29T02:19:01;13.1;55.2
9666;DHT22;4871;52.004;5.924;2023-05-29T02:20:00;13.0;55.1
9666;DHT22;4871;52.004;5.924;2023-05-29T02:21:00;13.0;55.5
9666;DHT22;4871;52.004;5.924;2023-05-29T02:22:00;13.0;55.2
9666;DHT22;4871;52.004;5.924;2023-05-29T02:23:00;12.9;55.3
9666;DHT22;4871;52.004;5.924;2023-05-29T02:24:00;12.9;55.6
9666;DHT22;4871;52.004;5.924;2023-05-29T02:25:00;12.9;55.5
9666;DHT22;4871;52.004;5.924;2023-05-29T02:26:00;13.0;55.3
9666;DHT22;4871;52.004;5.924;2023-05-29T02:27:01;12.9;55.4
9666;DHT22;4871;52.004;5.924;2023-05-29T02:28:00;13.0;55.4
9666;DHT22;4871;52.004;5.924;2023-05-29T02:29:00;12.9;55.6
9666;DHT22;4871;52.004;5.924;2023-05-29T02:30:00;12.9;55.7
9666;DHT22;4871;52.004;5.924;2023-05-29T02:31:01;12.9;55.7
9666;DHT22;4871;52.004;5.924;2023-05-29T02:32:00;12.8;55.9
9666;DHT22;4871;52.004;5.924;2023-05-29T02:33:00;12.9;55.8
9666;DHT22;4871;52.004;5.924;2023-05-29T02:34:00;12.9;55.6
9666;DHT22;4871;52.004;5.924;2023-05-29T02:35:00;12.8;55.8
9666;DHT22;4871;52.004;5.924;2023-05-29T02:36:00;12.9;55.6
9666;DHT22;4871;52.004;5.924;2023-05-29T02:37:00;12.8;55.8
9666;DHT22;4871;52.004;5.924;2023-05-29T02:38:00;12.8;56.0
9666;DHT22;4871;52.004;5.924;2023-05-29T02:39:00;12.8;55.7
9666;DHT22;4871;52.004;5.924;2023-05-29T02:40:00;12.8;55.8
9666;DHT22;4871;52.004;5.924;2023-05-29T02:41:00;12.8;55.8
9666;DHT22;4871;52.004;5.924;2023-05-29T02:42:00;12.8;55.8
9666;DHT22;4871;52.004;5.924;2023-05-29T02:43:00;12.7;55.7
9666;DHT22;4871;52.004;5.924;2023-05-29T02:44:00;12.7;56.1
9666;DHT22;4871;52.004;5.924;2023-05-29T02:45:00;12.7;55.7
9666;DHT22;4871;52.004;5.924;2023-05-29T02:46:00;12.7;56.0
9666;DHT22;4871;52.004;5.924;2023-05-29T02:47:00;12.7;56.0
9666;DHT22;4871;52.004;5.924;2023-05-29T02:48:00;12.7;55.5
9666;DHT22;4871;52.004;5.924;2023-05-29T02:49:00;12.7;55.6
9666;DHT22;4871;52.004;5.924;2023-05-29T02:50:00;12.7;55.7
9666;DHT22;4871;52.004;5.924;2023-05-29T02:51:00;12.7;55.8
9666;DHT22;4871;52.004;5.924;2023-05-29T02:52:00;12.7;55.9
9666;DHT22;4871;52.004;5.924;2023-05-29T02:53:00;12.6;56.1
9666;DHT22;4871;52.004;5.924;2023-05-29T02:54:00;12.6;56.2
9666;DHT22;4871;52.004;5.924;2023-05-29T02:55:00;12.6;56.2
9666;DHT22;4871;52.004;5.924;2023-05-29T02:56:00;12.6;56.1
9666;DHT22;4871;52.004;5.924;2023-05-29T02:57:02;12.6;55.9
9666;DHT22;4871;52.004;5.924;2023-05-29T02:58:01;12.6;56.2
9666;DHT22;4871;52.004;5.924;2023-05-29T02:59:00;12.6;56.3
9666;DHT22;4871;52.004;5.924;2023-05-29T03:00:00;12.6;56.3
9666;DHT22;4871;52.004;5.924;2023-05-29T03:01:02;12.6;56.2
9666;DHT22;4871;52.004;5.924;2023-05-29T03:02:00;12.6;56.0
9666;DHT22;4871;52.004;5.924;2023-05-29T03:03:00;12.6;56.1
9666;DHT22;4871;52.004;5.924;2023-05-29T03:04:00;12.6;56.2
9666;DHT22;4871;52.004;5.924;2023-05-29T03:05:00;12.5;55.7
9666;DHT22;4871;52.004;5.924;2023-05-29T03:06:00;12.5;56.3
9666;DHT22;4871;52.004;5.924;2023-05-29T03:07:00;12.5;56.4
9666;DHT22;4871;52.004;5.924;2023-05-29T03:08:00;12.5;56.3
9666;DHT22;4871;52.004;5.924;2023-05-29T03:09:00;12.5;56.3
9666;DHT22;4871;52.004;5.924;2023-05-29T03:10:01;12.5;56.4
9666;DHT22;4871;52.004;5.924;2023-05-29T03:11:00;12.5;56.4
9666;DHT22;4871;52.004;5.924;2023-05-29T03:12:01;12.5;56.0
9666;DHT22;4871;52.004;5.924;2023-05-29T03:13:00;12.4;56.3
9666;DHT22;4871;52.004;5.924;2023-05-29T03:14:00;12.4;56.3
9666;DHT22;4871;52.004;5.924;2023-05-29T03:15:00;12.4;56.2
9666;DHT22;4871;52.004;5.924;2023-05-29T03:16:00;12.4;56.3
9666;DHT22;4871;52.004;5.924;2023-05-29T03:17:01;12.4;56.3
9666;DHT22;4871;52.004;5.924;2023-05-29T03:18:00;12.5;56.2
9666;DHT22;4871;52.004;5.924;2023-05-29T03:19:01;12.4;56.5
9666;DHT22;4871;52.004;5.924;2023-05-29T03:20:00;12.4;56.1
9666;DHT22;4871;52.004;5.924;2023-05-29T03:21:00;12.4;56.5
9666;DHT22;4871;52.004;5.924;2023-05-29T03:22:00;12.3;56.3
9666;DHT22;4871;52.004;5.924;2023-05-29T03:23:00;12.3;57.1
9666;DHT22;4871;52.004;5.924;2023-05-29T03:24:00;12.2;57.2
9666;DHT22;4871;52.004;5.924;2023-05-29T03:25:01;12.3;56.9
9666;DHT22;4871;52.004;5.924;2023-05-29T03:26:00;12.3;56.8
9666;DHT22;4871;52.004;5.924;2023-05-29T03:27:00;12.3;56.8
9666;DHT22;4871;52.004;5.924;2023-05-29T03:28:00;12.2;57.1
9666;DHT22;4871;52.004;5.924;2023-05-29T03:29:00;12.3;56.8
9666;DHT22;4871;52.004;5.924;2023-05-29T03:30:00;12.3;57.0
9666;DHT22;4871;52.004;5.924;2023-05-29T03:31:00;12.3;56.8
9666;DHT22;4871;52.004;5.924;2023-05-29T03:32:00;12.4;56.4
9666;DHT22;4871;52.004;5.924;2023-05-29T03:33:03;12.4;56.5
9666;DHT22;4871;52.004;5.924;2023-05-29T03:34:00;12.3;56.9
9666;DHT22;4871;52.004;5.924;2023-05-29T03:35:00;12.2;57.0
9666;DHT22;4871;52.004;5.924;2023-05-29T03:36:00;12.2;57.0
9666;DHT22;4871;52.004;5.924;2023-05-29T03:37:00;12.2;57.4
9666;DHT22;4871;52.004;5.924;2023-05-29T03:38:00;12.2;57.1
9666;DHT22;4871;52.004;5.924;2023-05-29T03:39:00;12.2;57.3
9666;DHT22;4871;52.004;5.924;2023-05-29T03:40:00;12.2;56.7
9666;DHT22;4871;52.004;5.924;2023-05-29T03:41:00;12.2;56.6
9666;DHT22;4871;52.004;5.924;2023-05-29T03:42:00;12.3;56.9
9666;DHT22;4871;52.004;5.924;2023-05-29T03:43:00;12.3;56.8
9666;DHT22;4871;52.004;5.924;2023-05-29T03:44:00;12.2;56.6
9666;DHT22;4871;52.004;5.924;2023-05-29T03:45:00;12.2;56.8
9666;DHT22;4871;52.004;5.924;2023-05-29T03:46:00;12.1;56.9
9666;DHT22;4871;52.004;5.924;2023-05-29T03:47:00;12.1;56.9
9666;DHT22;4871;52.004;5.924;2023-05-29T03:48:00;12.2;56.6
9666;DHT22;4871;52.004;5.924;2023-05-29T03:49:00;12.1;56.8
9666;DHT22;4871;52.004;5.924;2023-05-29T03:50:00;12.1;56.9
9666;DHT22;4871;52.004;5.924;2023-05-29T03:51:00;12.1;57.0
9666;DHT22;4871;52.004;5.924;2023-05-29T03:52:00;12.1;57.0
9666;DHT22;4871;52.004;5.924;2023-05-29T03:53:00;12.1;57.0
9666;DHT22;4871;52.004;5.924;2023-05-29T03:54:00;12.1;56.6
9666;DHT22;4871;52.004;5.924;2023-05-29T03:55:00;12.1;56.9
9666;DHT22;4871;52.004;5.924;2023-05-29T03:56:00;12.1;56.9
9666;DHT22;4871;52.004;5.924;2023-05-29T03:57:01;12.1;56.6
9666;DHT22;4871;52.004;5.924;2023-05-29T03:58:00;12.1;57.1
9666;DHT22;4871;52.004;5.924;2023-05-29T03:59:00;12.1;56.9
9666;DHT22;4871;52.004;5.924;2023-05-29T04:00:00;12.1;56.8
9666;DHT22;4871;52.004;5.924;2023-05-29T04:01:00;12.1;56.8
9666;DHT22;4871;52.004;5.924;2023-05-29T04:02:00;12.1;56.6
9666;DHT22;4871;52.004;5.924;2023-05-29T04:03:00;12.1;57.0
9666;DHT22;4871;52.004;5.924;2023-05-29T04:04:00;12.1;57.0
9666;DHT22;4871;52.004;5.924;2023-05-29T04:05:00;12.1;56.8
9666;DHT22;4871;52.004;5.924;2023-05-29T04:06:00;12.1;56.9
9666;DHT22;4871;52.004;5.924;2023-05-29T04:07:00;12.1;56.8
9666;DHT22;4871;52.004;5.924;2023-05-29T04:08:00;12.0;56.8
9666;DHT22;4871;52.004;5.924;2023-05-29T04:09:00;12.0;57.0
9666;DHT22;4871;52.004;5.924;2023-05-29T04:10:00;12.1;57.0
9666;DHT22;4871;52.004;5.924;2023-05-29T04:11:01;12.0;57.1
9666;DHT22;4871;52.004;5.924;2023-05-29T04:12:03;12.0;57.1
9666;DHT22;4871;52.004;5.924;2023-05-29T04:13:00;12.1;56.9
9666;DHT22;4871;52.004;5.924;2023-05-29T04:14:00;12.1;56.7
9666;DHT22;4871;52.004;5.924;2023-05-29T04:15:00;12.1;56.8
9666;DHT22;4871;52.004;5.924;2023-05-29T04:16:00;12.1;57.0
9666;DHT22;4871;52.004;5.924;2023-05-29T04:17:00;12.1;56.9
9666;DHT22;4871;52.004;5.924;2023-05-29T04:18:00;12.1;56.7
9666;DHT22;4871;52.004;5.924;2023-05-29T04:19:00;12.1;57.0
9666;DHT22;4871;52.004;5.924;2023-05-29T04:20:06;12.1;56.9
9666;DHT22;4871;52.004;5.924;2023-05-29T04:21:00;12.0;57.0
9666;DHT22;4871;52.004;5.924;2023-05-29T04:22:00;12.1;56.9
9666;DHT22;4871;52.004;5.924;2023-05-29T04:23:00;12.0;57.2
9666;DHT22;4871;52.004;5.924;2023-05-29T04:24:00;12.1;57.1
9666;DHT22;4871;52.004;5.924;2023-05-29T04:25:00;12.1;56.8
9666;DHT22;4871;52.004;5.924;2023-05-29T04:26:02;12.1;57.2
9666;DHT22;4871;52.004;5.924;2023-05-29T04:27:01;12.1;57.1
9666;DHT22;4871;52.004;5.924;2023-05-29T04:28:02;12.1;57.2
9666;DHT22;4871;52.004;5.924;2023-05-29T04:29:00;12.1;57.0
9666;DHT22;4871;52.004;5.924;2023-05-29T04:30:00;12.1;57.2
9666;DHT22;4871;52.004;5.924;2023-05-29T04:31:00;12.1;57.1
9666;DHT22;4871;52.004;5.924;2023-05-29T04:32:03;12.1;57.1
9666;DHT22;4871;52.004;5.924;2023-05-29T04:33:00;12.1;57.0
9666;DHT22;4871;52.004;5.924;2023-05-29T04:34:00;12.1;56.9
9666;DHT22;4871;52.004;5.924;2023-05-29T04:35:02;12.1;56.5
9666;DHT22;4871;52.004;5.924;2023-05-29T04:36:01;12.1;56.8
9666;DHT22;4871;52.004;5.924;2023-05-29T04:37:00;12.0;57.3
9666;DHT22;4871;52.004;5.924;2023-05-29T04:38:00;12.1;57.2
9666;DHT22;4871;52.004;5.924;2023-05-29T04:39:00;12.1;56.9
9666;DHT22;4871;52.004;5.924;2023-05-29T04:40:01;12.1;57.1
9666;DHT22;4871;52.004;5.924;2023-05-29T04:41:00;12.1;57.1
9666;DHT22;4871;52.004;5.924;2023-05-29T04:42:00;12.1;57.2
9666;DHT22;4871;52.004;5.924;2023-05-29T04:43:00;12.2;56.9
9666;DHT22;4871;52.004;5.924;2023-05-29T04:44:00;12.2;57.2
9666;DHT22;4871;52.004;5.924;2023-05-29T04:45:00;12.1;56.9
9666;DHT22;4871;52.004;5.924;2023-05-29T04:46:00;12.1;57.1
9666;DHT22;4871;52.004;5.924;2023-05-29T04:47:03;12.1;57.0
9666;DHT22;4871;52.004;5.924;2023-05-29T04:48:00;12.1;57.1
9666;DHT22;4871;52.004;5.924;2023-05-29T04:49:02;12.2;57.0
9666;DHT22;4871;52.004;5.924;2023-05-29T04:50:00;12.1;57.0
9666;DHT22;4871;52.004;5.924;2023-05-29T04:51:00;12.2;57.0
9666;DHT22;4871;52.004;5.924;2023-05-29T04:52:00;12.2;56.8
9666;DHT22;4871;52.004;5.924;2023-05-29T04:53:00;12.1;57.0
9666;DHT22;4871;52.004;5.924;2023-05-29T04:54:00;12.1;57.0
9666;DHT22;4871;52.004;5.924;2023-05-29T04:55:00;12.2;57.1
9666;DHT22;4871;52.004;5.924;2023-05-29T04:56:00;12.2;56.9
9666;DHT22;4871;52.004;5.924;2023-05-29T04:57:00;12.2;56.9
9666;DHT22;4871;52.004;5.924;2023-05-29T04:58:00;12.2;57.0
9666;DHT22;4871;52.004;5.924;2023-05-29T04:59:00;12.2;56.9
9666;DHT22;4871;52.004;5.924;2023-05-29T05:00:00;12.2;57.1
9666;DHT22;4871;52.004;5.924;2023-05-29T05:01:03;12.3;56.7
9666;DHT22;4871;52.004;5.924;2023-05-29T05:02:00;12.3;56.6
9666;DHT22;4871;52.004;5.924;2023-05-29T05:03:00;12.3;56.6
9666;DHT22;4871;52.004;5.924;2023-05-29T05:04:00;12.2;56.8
9666;DHT22;4871;52.004;5.924;2023-05-29T05:05:00;12.2;57.0
9666;DHT22;4871;52.004;5.924;2023-05-29T05:06:02;12.3;56.8
9666;DHT22;4871;52.004;5.924;2023-05-29T05:07:00;12.3;56.7
9666;DHT22;4871;52.004;5.924;2023-05-29T05:08:00;12.3;56.7
9666;DHT22;4871;52.004;5.924;2023-05-29T05:09:01;12.3;56.6
9666;DHT22;4871;52.004;5.924;2023-05-29T05:10:00;12.4;56.3
9666;DHT22;4871;52.004;5.924;2023-05-29T05:11:00;12.4;56.5
9666;DHT22;4871;52.004;5.924;2023-05-29T05:12:01;12.4;56.6
9666;DHT22;4871;52.004;5.924;2023-05-29T05:13:02;12.3;56.9
9666;DHT22;4871;52.004;5.924;2023-05-29T05:14:00;12.4;56.5
9666;DHT22;4871;52.004;5.924;2023-05-29T05:15:00;12.4;56.5
9666;DHT22;4871;52.004;5.924;2023-05-29T05:16:01;12.4;56.4
9666;DHT22;4871;52.004;5.924;2023-05-29T05:17:00;12.4;56.6
9666;DHT22;4871;52.004;5.924;2023-05-29T05:18:00;12.4;56.5
9666;DHT22;4871;52.004;5.924;2023-05-29T05:19:00;12.4;56.8
9666;DHT22;4871;52.004;5.924;2023-05-29T05:20:00;12.5;56.6
9666;DHT22;4871;52.004;5.924;2023-05-29T05:21:00;12.4;57.2
9666;DHT22;4871;52.004;5.924;2023-05-29T05:22:00;12.5;56.7
9666;DHT22;4871;52.004;5.924;2023-05-29T05:23:00;12.5;56.3
9666;DHT22;4871;52.004;5.924;2023-05-29T05:24:00;12.6;56.6
9666;DHT22;4871;52.004;5.924;2023-05-29T05:25:00;12.6;56.5
9666;DHT22;4871;52.004;5.924;2023-05-29T05:26:00;12.5;57.2
9666;DHT22;4871;52.004;5.924;2023-05-29T05:27:00;12.6;56.7
9666;DHT22;4871;52.004;5.924;2023-05-29T05:28:00;12.7;56.4
9666;DHT22;4871;52.004;5.924;2023-05-29T05:29:01;12.6;56.7
9666;DHT22;4871;52.004;5.924;2023-05-29T05:30:00;12.7;56.7
9666;DHT22;4871;52.004;5.924;2023-05-29T05:31:01;12.7;56.9
9666;DHT22;4871;52.004;5.924;2023-05-29T05:32:00;12.7;56.7
9666;DHT22;4871;52.004;5.924;2023-05-29T05:33:00;12.7;56.7
9666;DHT22;4871;52.004;5.924;2023-05-29T05:34:00;12.7;56.7
9666;DHT22;4871;52.004;5.924;2023-05-29T05:35:00;12.7;56.8
9666;DHT22;4871;52.004;5.924;2023-05-29T05:36:00;12.7;57.4
9666;DHT22;4871;52.004;5.924;2023-05-29T05:37:00;12.8;56.7
9666;DHT22;4871;52.004;5.924;2023-05-29T05:38:00;12.8;57.1
9666;DHT22;4871;52.004;5.924;2023-05-29T05:39:00;12.9;57.0
9666;DHT22;4871;52.004;5.924;2023-05-29T05:40:00;12.9;56.5
9666;DHT22;4871;52.004;5.924;2023-05-29T05:41:00;12.9;57.0
9666;DHT22;4871;52.004;5.924;2023-05-29T05:42:01;13.0;56.9
9666;DHT22;4871;52.004;5.924;2023-05-29T05:43:00;13.0;56.2
9666;DHT22;4871;52.004;5.924;2023-05-29T05:44:00;13.1;56.1
9666;DHT22;4871;52.004;5.924;2023-05-29T05:45:00;13.1;56.5
9666;DHT22;4871;52.004;5.924;2023-05-29T05:46:00;13.1;57.0
9666;DHT22;4871;52.004;5.924;2023-05-29T05:47:00;13.1;56.8
9666;DHT22;4871;52.004;5.924;2023-05-29T05:48:01;13.2;56.9
9666;DHT22;4871;52.004;5.924;2023-05-29T05:49:00;13.2;57.4
9666;DHT22;4871;52.004;5.924;2023-05-29T05:50:00;13.2;56.9
9666;DHT22;4871;52.004;5.924;2023-05-29T05:51:00;13.3;56.3
9666;DHT22;4871;52.004;5.924;2023-05-29T05:52:00;13.3;56.4
9666;DHT22;4871;52.004;5.924;2023-05-29T05:53:00;13.4;56.8
9666;DHT22;4871;52.004;5.924;2023-05-29T05:54:00;13.4;57.2
9666;DHT22;4871;52.004;5.924;2023-05-29T05:55:00;13.5;56.7
9666;DHT22;4871;52.004;5.924;2023-05-29T05:56:01;13.5;56.9
9666;DHT22;4871;52.004;5.924;2023-05-29T05:57:00;13.6;56.2
9666;DHT22;4871;52.004;5.924;2023-05-29T05:58:00;13.7;56.2
9666;DHT22;4871;52.004;5.924;2023-05-29T05:59:01;13.7;56.1
9666;DHT22;4871;52.004;5.924;2023-05-29T06:00:00;13.8;55.8
9666;DHT22;4871;52.004;5.924;2023-05-29T06:01:01;13.9;56.1
9666;DHT22;4871;52.004;5.924;2023-05-29T06:02:00;14.0;56.1
9666;DHT22;4871;52.004;5.924;2023-05-29T06:03:02;14.0;55.4
9666;DHT22;4871;52.004;5.924;2023-05-29T06:04:00;14.1;55.3
9666;DHT22;4871;52.004;5.924;2023-05-29T06:05:00;14.2;55.3
9666;DHT22;4871;52.004;5.924;2023-05-29T06:06:00;14.2;55.8
9666;DHT22;4871;52.004;5.924;2023-05-29T06:07:00;14.2;55.0
9666;DHT22;4871;52.004;5.924;2023-05-29T06:08:00;14.3;54.7
9666;DHT22;4871;52.004;5.924;2023-05-29T06:09:00;14.4;54.8
9666;DHT22;4871;52.004;5.924;2023-05-29T06:10:00;14.4;54.4
9666;DHT22;4871;52.004;5.924;2023-05-29T06:11:00;14.5;54.2
9666;DHT22;4871;52.004;5.924;2023-05-29T06:12:00;14.6;55.0
9666;DHT22;4871;52.004;5.924;2023-05-29T06:13:00;14.7;54.1
9666;DHT22;4871;52.004;5.924;2023-05-29T06:14:00;14.7;53.9
9666;DHT22;4871;52.004;5.924;2023-05-29T06:15:00;14.7;53.9
9666;DHT22;4871;52.004;5.924;2023-05-29T06:16:00;14.7;54.2
9666;DHT22;4871;52.004;5.924;2023-05-29T06:17:00;14.7;54.2
9666;DHT22;4871;52.004;5.924;2023-05-29T06:18:00;14.8;54.2
9666;DHT22;4871;52.004;5.924;2023-05-29T06:19:00;14.9;53.8
9666;DHT22;4871;52.004;5.924;2023-05-29T06:20:00;14.9;53.6
9666;DHT22;4871;52.004;5.924;2023-05-29T06:21:01;15.0;54.4
9666;DHT22;4871;52.004;5.924;2023-05-29T06:22:01;15.1;53.1
9666;DHT22;4871;52.004;5.924;2023-05-29T06:23:00;15.2;52.7
9666;DHT22;4871;52.004;5.924;2023-05-29T06:24:00;15.2;53.6
9666;DHT22;4871;52.004;5.924;2023-05-29T06:25:00;15.3;52.9
9666;DHT22;4871;52.004;5.924;2023-05-29T06:26:00;15.3;52.8
9666;DHT22;4871;52.004;5.924;2023-05-29T06:27:01;15.3;52.9
9666;DHT22;4871;52.004;5.924;2023-05-29T06:28:00;15.3;53.7
9666;DHT22;4871;52.004;5.924;2023-05-29T06:29:00;15.3;53.3
9666;DHT22;4871;52.004;5.924;2023-05-29T06:30:00;15.4;52.8
9666;DHT22;4871;52.004;5.924;2023-05-29T06:31:00;15.4;52.7
9666;DHT22;4871;52.004;5.924;2023-05-29T06:32:00;15.5;53.2
9666;DHT22;4871;52.004;5.924;2023-05-29T06:33:00;15.6;52.5
9666;DHT22;4871;52.004;5.924;2023-05-29T06:34:00;15.6;53.3
9666;DHT22;4871;52.004;5.924;2023-05-29T06:35:00;15.7;52.1
9666;DHT22;4871;52.004;5.924;2023-05-29T06:36:00;15.8;52.1
9666;DHT22;4871;52.004;5.924;2023-05-29T06:37:00;15.9;51.8
9666;DHT22;4871;52.004;5.924;2023-05-29T06:38:00;15.9;51.6
9666;DHT22;4871;52.004;5.924;2023-05-29T06:39:00;16.0;52.0
9666;DHT22;4871;52.004;5.924;2023-05-29T06:40:00;16.0;51.5
9666;DHT22;4871;52.004;5.924;2023-05-29T06:41:00;16.1;52.0
9666;DHT22;4871;52.004;5.924;2023-05-29T06:42:01;16.2;51.6
9666;DHT22;4871;52.004;5.924;2023-05-29T06:43:00;16.2;51.6
9666;DHT22;4871;52.004;5.924;2023-05-29T06:44:00;16.3;51.5